createdAt,value
2018-01-24T00:02:19.836Z,42.80
2018-01-24T00:04:46.410Z,41.20
2018-01-24T00:07:12.995Z,34.30
2018-01-24T00:09:39.690Z,49.20
2018-01-24T00:12:06.266Z,39.37
2018-01-24T00:14:32.843Z,38.67
2018-01-24T00:16:59.423Z,34.77
2018-01-24T00:19:26.010Z,33.60
2018-01-24T00:21:52.591Z,35.63
2018-01-24T00:24:19.167Z,44.83
2018-01-24T00:26:45.748Z,43.83
2018-01-24T00:29:12.331Z,37.27
2018-01-24T00:31:38.907Z,36.90
2018-01-24T00:34:05.610Z,44.50
2018-01-24T00:36:32.991Z,42.87
2018-01-24T00:38:59.567Z,41.60
2018-01-24T00:41:26.274Z,37.83
2018-01-24T00:43:52.847Z,43.53
2018-01-24T00:46:19.426Z,42.37
2018-01-24T00:48:46.103Z,38.30
2018-01-24T00:51:12.685Z,37.47
2018-01-24T00:53:39.259Z,30.17
2018-01-24T00:56:05.838Z,27.40
2018-01-24T00:58:32.414Z,30.03
2018-01-24T01:00:59.102Z,37.70
2018-01-24T01:03:25.674Z,38.50
2018-01-24T01:05:52.257Z,35.70
2018-01-24T01:08:18.832Z,36.07
2018-01-24T01:10:45.414Z,30.93
2018-01-24T01:13:11.990Z,33.53
2018-01-24T01:15:38.563Z,33.70
2018-01-24T01:18:05.170Z,38.47
2018-01-24T01:20:31.748Z,36.47
2018-01-24T01:22:58.331Z,29.90
2018-01-24T01:25:24.908Z,30.73
2018-01-24T01:27:51.483Z,35.30
2018-01-24T01:30:18.068Z,34.57
2018-01-24T01:32:44.647Z,38.77
2018-01-24T01:35:11.225Z,38.83
2018-01-24T01:37:38.027Z,38.67
2018-01-24T01:40:04.599Z,36.67
2018-01-24T01:42:31.175Z,33.40
2018-01-24T01:44:57.772Z,38.87
2018-01-24T01:47:24.344Z,37.90
2018-01-24T01:49:50.914Z,35.77
2018-01-24T01:52:17.491Z,41.70
2018-01-24T01:54:44.103Z,38.37
2018-01-24T01:57:10.684Z,41.90
2018-01-24T01:59:37.275Z,37.73
2018-01-24T02:02:04.123Z,37.00
2018-01-24T02:04:30.697Z,37.10
2018-01-24T02:06:57.271Z,41.87
2018-01-24T02:09:24.030Z,27.30
2018-01-24T02:11:50.612Z,33.03
2018-01-24T02:14:17.183Z,37.30
2018-01-24T02:16:43.766Z,34.63
2018-01-24T02:19:10.342Z,32.30
2018-01-24T02:21:36.919Z,31.00
2018-01-24T02:24:03.496Z,30.00
2018-01-24T02:26:30.074Z,30.53
2018-01-24T02:28:56.658Z,35.40
2018-01-24T02:31:23.244Z,33.97
2018-01-24T02:33:49.818Z,23.13
2018-01-24T02:36:16.643Z,27.57
2018-01-24T02:38:48.999Z,27.27
2018-01-24T02:41:15.566Z,32.40
2018-01-24T02:43:42.181Z,32.83
2018-01-24T02:46:08.758Z,29.87
2018-01-24T02:48:35.338Z,25.67
2018-01-24T02:51:01.931Z,32.83
2018-01-24T02:53:28.507Z,27.73
2018-01-24T02:55:55.079Z,35.27
2018-01-24T02:58:21.680Z,32.40
2018-01-24T03:00:48.255Z,26.57
2018-01-24T03:03:14.831Z,32.30
2018-01-24T03:05:41.432Z,37.50
2018-01-24T03:08:08.002Z,35.37
2018-01-24T03:10:34.623Z,41.40
2018-01-24T03:13:01.205Z,41.30
2018-01-24T03:15:27.778Z,34.30
2018-01-24T03:17:54.359Z,34.37
2018-01-24T03:20:20.943Z,44.00
2018-01-24T03:22:47.520Z,36.67
2018-01-24T03:25:14.100Z,44.67
2018-01-24T03:27:40.670Z,39.77
2018-01-24T03:30:07.251Z,40.70
2018-01-24T03:32:34.058Z,36.80
2018-01-24T03:35:00.638Z,37.07
2018-01-24T03:37:27.216Z,30.00
2018-01-24T03:39:53.818Z,36.73
2018-01-24T03:42:20.403Z,35.80
2018-01-24T03:44:46.981Z,31.37
2018-01-24T03:47:13.685Z,35.23
2018-01-24T03:49:40.260Z,23.40
2018-01-24T03:52:06.840Z,28.70
2018-01-24T03:54:33.467Z,30.30
2018-01-24T03:57:00.053Z,25.60
2018-01-24T03:59:26.626Z,24.47
2018-01-24T04:01:53.368Z,20.13
2018-01-24T04:04:19.948Z,32.07
2018-01-24T04:06:46.535Z,24.20
2018-01-24T04:09:13.396Z,26.50
2018-01-24T04:11:39.975Z,27.47
2018-01-24T04:14:06.556Z,22.87
2018-01-24T04:16:33.142Z,23.10
2018-01-24T04:18:59.715Z,28.67
2018-01-24T04:21:26.311Z,26.90
2018-01-24T04:23:52.894Z,26.03
2018-01-24T04:26:19.474Z,27.80
2018-01-24T04:28:46.079Z,32.83
2018-01-24T04:31:12.659Z,32.20
2018-01-24T04:33:39.234Z,30.73
2018-01-24T04:36:05.859Z,35.83
2018-01-24T04:38:32.430Z,31.37
2018-01-24T04:40:59.015Z,35.60
2018-01-24T04:43:25.886Z,36.57
2018-01-24T04:45:52.467Z,35.63
2018-01-24T04:48:19.050Z,38.73
2018-01-24T04:50:45.651Z,34.67
2018-01-24T04:53:12.230Z,44.47
2018-01-24T04:55:38.808Z,49.23
2018-01-24T04:58:05.703Z,50.50
2018-01-24T05:00:32.281Z,51.77
2018-01-24T05:02:58.853Z,43.57
2018-01-24T05:05:25.436Z,51.73
2018-01-24T05:07:52.028Z,54.50
2018-01-24T05:10:18.632Z,53.63
2018-01-24T05:12:45.207Z,44.53
2018-01-24T05:15:11.786Z,50.33
2018-01-24T05:17:38.392Z,47.37
2018-01-24T05:20:04.970Z,49.73
2018-01-24T05:22:31.547Z,41.43
2018-01-24T05:24:58.131Z,47.90
2018-01-24T05:27:24.711Z,43.10
2018-01-24T05:29:51.287Z,51.67
2018-01-24T05:32:18.055Z,48.03
2018-01-24T05:34:44.637Z,47.50
2018-01-24T05:37:11.223Z,47.63
2018-01-24T05:39:37.814Z,45.97
2018-01-24T05:42:04.395Z,44.20
2018-01-24T05:44:30.975Z,46.43
2018-01-24T05:46:57.918Z,43.63
2018-01-24T05:49:24.500Z,46.60
2018-01-24T05:51:51.091Z,41.10
2018-01-24T05:54:17.697Z,46.30
2018-01-24T05:56:44.279Z,48.03
2018-01-24T05:59:10.859Z,45.83
2018-01-24T06:01:37.436Z,46.77
2018-01-24T06:04:04.015Z,49.33
2018-01-24T06:06:30.636Z,44.80
2018-01-24T06:08:57.208Z,44.67
2018-01-24T06:11:23.793Z,51.23
2018-01-24T06:13:50.470Z,49.70
2018-01-24T06:16:17.059Z,52.47
2018-01-24T06:18:43.618Z,44.50
2018-01-24T06:21:10.227Z,55.23
2018-01-24T06:23:36.812Z,46.70
2018-01-24T06:26:03.392Z,47.47
2018-01-24T06:28:30.007Z,51.37
2018-01-24T06:30:56.591Z,48.93
2018-01-24T06:33:23.160Z,52.40
2018-01-24T06:35:50.119Z,41.83
2018-01-24T06:38:16.700Z,49.60
2018-01-24T06:40:43.272Z,49.53
2018-01-24T06:43:09.859Z,46.40
2018-01-24T06:45:36.440Z,40.80
2018-01-24T06:48:03.026Z,42.87
2018-01-24T06:50:29.618Z,47.37
2018-01-24T06:52:56.215Z,43.10
2018-01-24T06:55:23.111Z,50.63
2018-01-24T06:57:49.870Z,46.97
2018-01-24T07:00:16.463Z,40.33
2018-01-24T07:02:43.331Z,38.00
2018-01-24T07:05:09.915Z,47.30
2018-01-24T07:07:36.504Z,55.97
2018-01-24T07:10:03.111Z,45.77
2018-01-24T07:12:35.475Z,47.80
2018-01-24T07:15:02.069Z,50.17
2018-01-24T07:17:28.659Z,42.87
2018-01-24T07:19:55.240Z,52.60
2018-01-24T07:22:21.829Z,51.57
2018-01-24T07:24:48.680Z,52.57
2018-01-24T07:27:15.263Z,48.53
2018-01-24T07:29:41.841Z,41.13
2018-01-24T07:32:08.523Z,41.77
2018-01-24T07:34:35.111Z,47.80
2018-01-24T07:37:01.687Z,43.27
2018-01-24T07:39:28.277Z,42.47
2018-01-24T07:41:54.956Z,45.80
2018-01-24T07:44:21.546Z,43.57
2018-01-24T07:46:48.120Z,42.07
2018-01-24T07:49:14.731Z,45.57
2018-01-24T07:51:41.319Z,43.90
2018-01-24T07:54:07.903Z,40.50
2018-01-24T07:56:34.503Z,39.00
2018-01-24T07:59:01.088Z,38.43
2018-01-24T08:01:27.663Z,42.30
2018-01-24T08:03:54.264Z,42.37
2018-01-24T08:06:20.853Z,40.17
2018-01-24T08:08:47.439Z,37.40
2018-01-24T08:11:14.016Z,39.83
2018-01-24T08:13:40.891Z,39.30
2018-01-24T08:16:07.472Z,38.20
2018-01-24T08:18:34.051Z,39.27
2018-01-24T08:21:00.655Z,36.53
2018-01-24T08:23:27.243Z,31.80
2018-01-24T08:25:53.819Z,35.80
2018-01-24T08:28:20.425Z,32.40
2018-01-24T08:30:47.005Z,35.13
2018-01-24T08:33:13.595Z,36.47
2018-01-24T08:35:40.206Z,35.97
2018-01-24T08:38:06.796Z,30.63
2018-01-24T08:40:33.384Z,30.40
2018-01-24T08:42:59.975Z,33.47
2018-01-24T08:45:26.559Z,32.20
2018-01-24T08:47:53.140Z,30.73
2018-01-24T08:50:19.919Z,29.40
2018-01-24T08:52:46.501Z,24.90
2018-01-24T08:55:13.079Z,30.67
2018-01-24T08:57:39.923Z,25.77
2018-01-24T09:00:06.516Z,31.60
2018-01-24T09:02:33.119Z,32.30
2018-01-24T09:04:59.712Z,29.13
2018-01-24T09:07:26.291Z,37.43
2018-01-24T09:09:52.872Z,31.80
2018-01-24T09:12:19.450Z,30.30
2018-01-24T09:14:46.036Z,32.40
2018-01-24T09:17:12.737Z,30.70
2018-01-24T09:19:39.319Z,30.27
2018-01-24T09:22:05.906Z,29.80
2018-01-24T09:24:32.491Z,31.70
2018-01-24T09:26:59.073Z,25.70
2018-01-24T09:29:25.652Z,28.83
2018-01-24T09:31:52.319Z,29.60
2018-01-24T09:34:19.264Z,29.80
2018-01-24T09:36:45.838Z,30.90
2018-01-24T09:39:12.428Z,26.77
2018-01-24T09:41:39.031Z,26.13
2018-01-24T09:44:05.619Z,26.73
2018-01-24T09:46:32.195Z,28.60
2018-01-24T09:48:58.974Z,27.10
2018-01-24T09:51:25.551Z,26.40
2018-01-24T09:53:52.137Z,21.93
2018-01-24T09:56:18.737Z,23.37
2018-01-24T09:58:45.324Z,22.53
2018-01-24T10:01:11.898Z,25.73
2018-01-24T10:03:38.581Z,26.97
2018-01-24T10:06:05.165Z,20.13
2018-01-24T10:08:31.742Z,20.30
2018-01-24T10:10:58.333Z,21.07
2018-01-24T10:13:24.911Z,22.20
2018-01-24T10:15:51.489Z,22.80
2018-01-24T10:18:18.104Z,21.67
2018-01-24T10:20:44.688Z,19.00
2018-01-24T10:23:11.263Z,20.97
2018-01-24T10:25:37.948Z,21.77
2018-01-24T10:28:04.527Z,23.03
2018-01-24T10:30:31.145Z,21.50
2018-01-24T10:32:57.700Z,19.67
2018-01-24T10:35:24.283Z,18.50
2018-01-24T10:37:51.075Z,21.43
2018-01-24T10:40:17.661Z,20.87
2018-01-24T10:42:44.244Z,19.07
2018-01-24T10:45:11.196Z,18.83
2018-01-24T10:47:37.770Z,15.50
2018-01-24T10:50:04.350Z,17.73
2018-01-24T10:52:30.939Z,17.17
2018-01-24T10:54:57.524Z,18.47
2018-01-24T10:57:24.103Z,16.97
2018-01-24T10:59:50.691Z,18.77
2018-01-24T11:02:17.276Z,15.00
2018-01-24T11:04:43.854Z,15.83
2018-01-24T11:07:10.539Z,11.90
2018-01-24T11:09:37.119Z,11.13
2018-01-24T11:12:03.694Z,11.57
2018-01-24T11:14:30.303Z,11.93
2018-01-24T11:16:56.879Z,13.03
2018-01-24T11:19:23.456Z,11.60
2018-01-24T11:21:50.320Z,12.27
2018-01-24T11:24:16.888Z,10.80
2018-01-24T11:26:43.470Z,9.87
2018-01-24T11:29:10.235Z,9.63
2018-01-24T11:31:36.817Z,12.63
2018-01-24T11:34:03.387Z,11.80
2018-01-24T11:36:30.347Z,10.37
2018-01-24T11:38:56.920Z,9.77
2018-01-24T11:41:23.490Z,11.03
2018-01-24T11:43:50.071Z,9.73
2018-01-24T11:46:16.644Z,10.87
2018-01-24T11:48:43.219Z,10.07
2018-01-24T11:51:09.811Z,10.83
2018-01-24T11:53:36.386Z,9.83
2018-01-24T11:56:02.959Z,9.53
2018-01-24T11:58:29.550Z,10.77
2018-01-24T12:00:56.124Z,9.93
2018-01-24T12:03:22.699Z,9.60
2018-01-24T12:05:49.283Z,9.53
2018-01-24T12:08:15.860Z,8.07
2018-01-24T12:10:42.430Z,8.93
2018-01-24T12:13:09.266Z,8.20
2018-01-24T12:15:35.831Z,8.07
2018-01-24T12:18:02.425Z,7.93
2018-01-24T12:20:28.999Z,8.57
2018-01-24T12:22:55.575Z,7.60
2018-01-24T12:25:22.156Z,7.63
2018-01-24T12:27:48.748Z,6.40
2018-01-24T12:30:15.323Z,7.33
2018-01-24T12:32:41.900Z,8.03
2018-01-24T12:35:08.727Z,6.90
2018-01-24T12:37:35.301Z,6.70
2018-01-24T12:40:01.861Z,6.20
2018-01-24T12:42:28.436Z,6.00
2018-01-24T12:44:55.008Z,6.27
2018-01-24T12:47:21.611Z,5.83
2018-01-24T12:49:48.195Z,5.10
2018-01-24T12:52:14.763Z,5.73
2018-01-24T12:54:41.359Z,6.20
2018-01-24T12:57:07.934Z,5.03
2018-01-24T12:59:34.503Z,5.83
2018-01-24T13:02:01.103Z,5.43
2018-01-24T13:04:27.668Z,5.90
2018-01-24T13:06:54.272Z,5.03
2018-01-24T13:09:20.873Z,5.13
2018-01-24T13:11:47.444Z,5.47
2018-01-24T13:14:14.032Z,5.30
2018-01-24T13:16:40.599Z,5.10
2018-01-24T13:19:07.171Z,5.07
2018-01-24T13:21:33.779Z,4.80
2018-01-24T13:24:00.337Z,5.03
2018-01-24T13:26:26.907Z,4.80
2018-01-24T13:28:53.499Z,5.03
2018-01-24T13:31:20.070Z,4.10
2018-01-24T13:33:46.644Z,4.67
2018-01-24T13:36:13.240Z,4.50
2018-01-24T13:38:39.811Z,5.00
2018-01-24T13:41:06.384Z,4.43
2018-01-24T13:43:32.960Z,4.47
2018-01-24T13:45:59.895Z,4.77
2018-01-24T13:48:26.459Z,4.23
2018-01-24T13:50:53.041Z,5.00
2018-01-24T13:53:19.931Z,5.83
2018-01-24T13:55:46.504Z,4.20
2018-01-24T13:58:13.076Z,4.23
2018-01-24T14:00:39.660Z,4.60
2018-01-24T14:03:06.227Z,4.50
2018-01-24T14:05:32.803Z,4.40
2018-01-24T14:07:59.394Z,4.60
2018-01-24T14:10:25.968Z,4.80
2018-01-24T14:12:52.541Z,5.57
2018-01-24T14:15:19.135Z,5.10
2018-01-24T14:17:45.714Z,5.10
2018-01-24T14:20:12.284Z,4.70
2018-01-24T14:22:38.881Z,4.87
2018-01-24T14:25:05.448Z,4.63
2018-01-24T14:27:32.025Z,5.07
2018-01-24T14:29:59.181Z,4.70
2018-01-24T14:32:25.738Z,4.73
2018-01-24T14:34:52.299Z,4.30
2018-01-24T14:37:19.669Z,4.60
2018-01-24T14:39:46.371Z,4.60
2018-01-24T14:42:12.967Z,4.50
2018-01-24T14:44:39.631Z,4.50
2018-01-24T14:47:06.175Z,4.73
2018-01-24T14:49:32.781Z,4.27
2018-01-24T14:51:59.357Z,4.63
2018-01-24T14:54:26.099Z,4.03
2018-01-24T14:56:52.647Z,4.63
2018-01-24T14:59:19.339Z,4.73
2018-01-24T15:01:45.912Z,4.23
2018-01-24T15:04:12.492Z,4.07
2018-01-24T15:06:39.063Z,4.00
2018-01-24T15:09:05.673Z,4.43
2018-01-24T15:11:32.240Z,4.23
2018-01-24T15:13:58.815Z,4.30
2018-01-24T15:16:25.643Z,4.33
2018-01-24T15:18:52.254Z,4.73
2018-01-24T15:21:18.791Z,4.73
2018-01-24T15:23:45.403Z,4.90
2018-01-24T15:26:11.979Z,4.17
2018-01-24T15:28:38.562Z,4.20
2018-01-24T15:31:05.172Z,4.33
2018-01-24T15:33:31.759Z,4.40
2018-01-24T15:35:58.331Z,4.70
2018-01-24T15:38:25.156Z,4.40
2018-01-24T15:40:51.724Z,4.50
2018-01-24T15:43:18.300Z,4.40
2018-01-24T15:45:44.891Z,4.23
2018-01-24T15:48:11.461Z,4.47
2018-01-24T15:50:38.041Z,3.83
2018-01-24T15:53:04.631Z,6.77
2018-01-24T15:55:31.199Z,4.40
2018-01-24T15:57:57.775Z,4.37
2018-01-24T16:00:24.356Z,4.60
2018-01-24T16:02:50.928Z,4.00
2018-01-24T16:05:17.511Z,5.40
2018-01-24T16:07:44.084Z,4.67
2018-01-24T16:10:10.659Z,4.63
2018-01-24T16:12:37.344Z,4.10
2018-01-24T16:15:03.911Z,4.73
2018-01-24T16:17:30.502Z,7.23
2018-01-24T16:19:57.069Z,4.60
2018-01-24T16:22:23.640Z,4.60
2018-01-24T16:24:50.216Z,4.53
2018-01-24T16:29:52.776Z,4.20
2018-01-24T16:32:19.343Z,3.67
2018-01-24T16:34:45.932Z,4.10
2018-01-24T16:37:12.687Z,4.90
2018-01-24T16:39:39.258Z,4.33
2018-01-24T16:42:06.017Z,4.67
2018-01-24T16:44:32.602Z,4.37
2018-01-24T16:46:59.179Z,4.67
2018-01-24T16:49:26.864Z,4.20
2018-01-24T16:51:53.440Z,5.30
2018-01-24T16:54:20.008Z,3.90
2018-01-24T16:56:46.624Z,4.13
2018-01-24T16:59:13.197Z,4.70
2018-01-24T17:01:39.776Z,5.20
2018-01-24T17:04:06.347Z,4.80
2018-01-24T17:06:32.918Z,5.30
2018-01-24T17:08:59.504Z,4.67
2018-01-24T17:11:26.072Z,5.20
2018-01-24T17:13:52.649Z,4.90
2018-01-24T17:16:19.227Z,4.83
2018-01-24T17:18:45.806Z,5.10
2018-01-24T17:21:12.580Z,4.70
2018-01-24T17:23:39.152Z,5.17
2018-01-24T17:26:05.725Z,5.03
2018-01-24T17:28:32.346Z,5.20
2018-01-24T17:30:58.893Z,4.33
2018-01-24T17:33:25.471Z,5.10
2018-01-24T17:35:52.283Z,4.87
2018-01-24T17:38:18.860Z,3.83
2018-01-24T17:40:45.440Z,4.10
2018-01-24T17:43:12.017Z,6.17
2018-01-24T17:45:38.612Z,4.07
2018-01-24T17:48:05.201Z,3.67
2018-01-24T17:50:31.792Z,3.90
2018-01-24T17:52:58.369Z,3.80
2018-01-24T17:55:24.953Z,3.40
2018-01-24T17:57:51.524Z,4.00
2018-01-24T18:00:18.103Z,4.07
2018-01-24T18:02:44.967Z,3.70
2018-01-24T18:05:11.569Z,3.50
2018-01-24T18:07:38.132Z,3.50
2018-01-24T18:10:04.708Z,4.60
2018-01-24T18:12:31.301Z,4.13
2018-01-24T18:14:57.902Z,4.17
2018-01-24T18:17:24.483Z,3.60
2018-01-24T18:19:51.056Z,3.70
2018-01-24T18:22:17.951Z,3.83
2018-01-24T18:24:44.532Z,3.90
2018-01-24T18:27:11.111Z,4.43
2018-01-24T18:29:37.701Z,3.73
2018-01-24T18:32:04.272Z,3.30
2018-01-24T18:34:30.856Z,3.60
2018-01-24T18:36:57.464Z,3.80
2018-01-24T18:39:24.039Z,3.67
2018-01-24T18:41:50.665Z,4.13
2018-01-24T18:44:17.471Z,3.50
2018-01-24T18:46:44.295Z,3.83
2018-01-24T18:49:11.036Z,4.00
2018-01-24T18:51:37.618Z,4.90
2018-01-24T18:54:04.188Z,4.10
2018-01-24T18:56:30.755Z,6.20
2018-01-24T18:58:57.435Z,5.43
2018-01-24T19:01:24.025Z,4.33
2018-01-24T19:03:50.598Z,4.67
2018-01-24T19:06:17.184Z,4.70
2018-01-24T19:08:43.764Z,4.27
2018-01-24T19:11:10.342Z,5.00
2018-01-24T19:13:36.966Z,6.23
2018-01-24T19:16:03.524Z,4.17
2018-01-24T19:18:30.103Z,4.87
2018-01-24T19:20:56.693Z,4.70
2018-01-24T19:23:23.263Z,3.67
2018-01-24T19:25:49.843Z,4.87
2018-01-24T19:28:16.423Z,4.50
2018-01-24T19:30:43.031Z,4.50
2018-01-24T19:33:09.604Z,4.27
2018-01-24T19:35:36.177Z,4.30
2018-01-24T19:38:02.756Z,4.00
2018-01-24T19:40:29.331Z,3.90
2018-01-24T19:42:55.906Z,4.10
2018-01-24T19:45:22.860Z,4.27
2018-01-24T19:47:49.440Z,3.70
2018-01-24T19:50:16.023Z,3.73
2018-01-24T19:52:42.608Z,3.77
2018-01-24T19:55:09.197Z,4.03
2018-01-24T19:57:35.769Z,3.43
2018-01-24T20:00:02.357Z,4.83
2018-01-24T20:02:28.972Z,3.47
2018-01-24T20:04:55.547Z,2.83
2018-01-24T20:07:22.128Z,2.87
2018-01-24T20:09:48.740Z,3.20
2018-01-24T20:12:15.312Z,3.43
2018-01-24T20:14:41.883Z,3.30
2018-01-24T20:17:08.760Z,3.00
2018-01-24T20:19:35.332Z,3.47
2018-01-24T20:22:01.911Z,3.30
2018-01-24T20:24:28.519Z,3.67
2018-01-24T20:26:55.104Z,3.90
2018-01-24T20:29:21.683Z,3.70
2018-01-24T20:31:48.364Z,3.40
2018-01-24T20:34:14.945Z,3.40
2018-01-24T20:36:41.515Z,5.30
2018-01-24T20:39:08.272Z,3.50
2018-01-24T20:41:34.844Z,2.77
2018-01-24T20:44:01.424Z,3.60
2018-01-24T20:46:27.999Z,4.03
2018-01-24T20:48:54.583Z,3.30
2018-01-24T20:51:21.164Z,3.50
2018-01-24T20:53:47.892Z,3.57
2018-01-24T20:56:14.479Z,3.30
2018-01-24T20:58:41.064Z,3.80
2018-01-24T21:01:07.656Z,2.80
2018-01-24T21:03:34.240Z,3.00
2018-01-24T21:06:00.808Z,3.07
2018-01-24T21:08:27.559Z,3.37
2018-01-24T21:10:54.146Z,3.00
2018-01-24T21:13:20.723Z,3.60
2018-01-24T21:15:47.318Z,3.00
2018-01-24T21:18:13.887Z,2.90
2018-01-24T21:20:40.469Z,3.10
2018-01-24T21:23:07.071Z,3.50
2018-01-24T21:25:33.619Z,3.00
2018-01-24T21:28:00.200Z,4.10
2018-01-24T21:30:26.787Z,3.10
2018-01-24T21:32:59.260Z,3.10
2018-01-24T21:35:31.852Z,2.60
2018-01-24T21:37:58.419Z,2.70
2018-01-24T21:40:24.996Z,3.17
2018-01-24T21:42:51.589Z,2.53
2018-01-24T21:45:18.163Z,3.10
2018-01-24T21:47:44.743Z,3.00
2018-01-24T21:50:11.430Z,2.73
2018-01-24T21:52:38.008Z,4.10
2018-01-24T21:55:04.567Z,2.93
2018-01-24T21:57:31.206Z,3.27
2018-01-24T21:59:57.747Z,5.30
2018-01-24T22:02:24.323Z,2.67
2018-01-24T22:04:50.912Z,3.30
2018-01-24T22:07:17.779Z,3.93
2018-01-24T22:09:44.357Z,2.50
2018-01-24T22:12:11.148Z,2.23
2018-01-24T22:14:37.719Z,2.37
2018-01-24T22:17:04.301Z,2.70
2018-01-24T22:19:35.901Z,2.13
2018-01-24T22:22:02.523Z,2.30
2018-01-24T22:24:29.133Z,2.50
2018-01-24T22:26:55.782Z,3.10
2018-01-24T22:29:22.394Z,1.90
2018-01-24T22:31:48.994Z,2.10
2018-01-24T22:34:15.639Z,2.47
2018-01-24T22:36:42.246Z,2.17
2018-01-24T22:39:08.871Z,2.23
2018-01-24T22:41:35.495Z,2.07
2018-01-24T22:44:02.104Z,2.07
2018-01-24T22:46:28.710Z,1.97
2018-01-24T22:48:55.307Z,2.03
2018-01-24T22:51:24.858Z,1.73
2018-01-24T22:53:51.426Z,1.73
2018-01-24T22:56:18.000Z,2.43
2018-01-24T22:58:44.571Z,2.30
2018-01-24T23:01:11.259Z,2.00
2018-01-24T23:03:37.840Z,3.50
2018-01-24T23:06:04.406Z,2.43
2018-01-24T23:08:30.995Z,4.33
2018-01-24T23:10:57.567Z,2.50
2018-01-24T23:13:24.143Z,3.40
2018-01-24T23:15:50.739Z,2.20
2018-01-24T23:18:17.306Z,2.70
2018-01-24T23:20:43.870Z,2.20
2018-01-24T23:23:10.456Z,3.30
2018-01-24T23:25:37.023Z,1.60
2018-01-24T23:28:03.612Z,1.83
2018-01-24T23:30:30.180Z,2.10
2018-01-24T23:32:56.751Z,2.20
2018-01-24T23:35:23.331Z,4.13
2018-01-24T23:37:49.911Z,1.60
2018-01-24T23:40:16.488Z,2.00
2018-01-24T23:42:43.059Z,2.50
2018-01-24T23:45:09.630Z,2.13
2018-01-24T23:47:36.231Z,2.60
2018-01-24T23:50:02.794Z,2.43
2018-01-24T23:52:29.371Z,2.00
2018-01-24T23:54:56.204Z,2.90
2018-01-24T23:57:22.780Z,2.40
2018-01-24T23:59:49.354Z,2.17
